createdAt,value
2019-03-22T00:00:39.921Z,102851.00
2019-03-22T00:03:09.451Z,102857.00
2019-03-22T00:05:39.005Z,102848.00
2019-03-22T00:08:08.460Z,102842.00
2019-03-22T00:10:37.973Z,102838.00
2019-03-22T00:13:07.409Z,102833.00
2019-03-22T00:15:36.970Z,102831.00
2019-03-22T00:18:06.530Z,102826.00
2019-03-22T00:20:36.050Z,102814.00
2019-03-22T00:23:05.691Z,102816.00
2019-03-22T00:25:35.144Z,102823.00
2019-03-22T00:28:04.720Z,102817.00
2019-03-22T00:30:34.351Z,102821.00
2019-03-22T00:33:03.835Z,102820.00
2019-03-22T00:35:33.274Z,102824.00
2019-03-22T00:38:02.711Z,102814.00
2019-03-22T00:40:32.245Z,102810.00
2019-03-22T00:43:01.840Z,102815.00
2019-03-22T00:45:31.298Z,102815.00
2019-03-22T00:48:00.794Z,102810.00
2019-03-22T00:50:30.269Z,102817.00
2019-03-22T00:52:59.837Z,102811.00
2019-03-22T00:55:29.316Z,102818.00
2019-03-22T00:57:58.793Z,102816.00
2019-03-22T01:00:28.344Z,102813.00
2019-03-22T01:05:26.409Z,102807.00
2019-03-22T01:07:55.880Z,102804.00
2019-03-22T01:10:25.354Z,102816.00
2019-03-22T01:12:54.822Z,102816.00
2019-03-22T01:15:24.275Z,102812.00
2019-03-22T01:17:53.744Z,102811.00
2019-03-22T01:20:23.258Z,102806.00
2019-03-22T01:22:52.891Z,102809.00
2019-03-22T01:25:22.487Z,102807.00
2019-03-22T01:27:53.745Z,102801.00
2019-03-22T01:30:23.180Z,102800.00
2019-03-22T01:32:52.650Z,102789.00
2019-03-22T01:35:22.144Z,102794.00
2019-03-22T01:37:51.730Z,102801.00
2019-03-22T01:40:21.283Z,102792.00
2019-03-22T01:42:50.806Z,102787.00
2019-03-22T01:45:20.365Z,102785.00
2019-03-22T01:47:49.877Z,102792.00
2019-03-22T01:50:19.828Z,102792.00
2019-03-22T01:52:49.400Z,102786.00
2019-03-22T01:55:18.867Z,102786.00
2019-03-22T01:57:53.525Z,102774.00
2019-03-22T02:00:20.116Z,102778.00
2019-03-22T02:02:49.700Z,102783.00
2019-03-22T02:05:19.577Z,102782.00
2019-03-22T02:07:49.009Z,102794.00
2019-03-22T02:10:18.709Z,102789.00
2019-03-22T02:12:48.206Z,102788.00
2019-03-22T02:15:18.156Z,102782.00
2019-03-22T02:17:47.705Z,102777.00
2019-03-22T02:20:19.313Z,102773.00
2019-03-22T02:22:48.760Z,102777.00
2019-03-22T02:25:18.231Z,102776.00
2019-03-22T02:27:47.892Z,102776.00
2019-03-22T02:30:18.675Z,102771.00
2019-03-22T02:32:48.117Z,102769.00
2019-03-22T02:35:28.167Z,102775.00
2019-03-22T02:37:48.894Z,102762.00
2019-03-22T02:40:18.420Z,102765.00
2019-03-22T02:42:47.876Z,102766.00
2019-03-22T02:45:17.738Z,102761.00
2019-03-22T02:47:47.213Z,102758.00
2019-03-22T02:50:19.823Z,102762.00
2019-03-22T02:52:47.942Z,102752.00
2019-03-22T02:55:17.494Z,102755.00
2019-03-22T02:57:46.951Z,102751.00
2019-03-22T03:00:18.736Z,102753.00
2019-03-22T03:02:48.360Z,102756.00
2019-03-22T03:05:17.874Z,102751.00
2019-03-22T03:07:47.464Z,102752.00
2019-03-22T03:10:17.697Z,102749.00
2019-03-22T03:12:47.509Z,102758.00
2019-03-22T03:15:20.048Z,102757.00
2019-03-22T03:17:49.533Z,102755.00
2019-03-22T03:20:20.126Z,102761.00
2019-03-22T03:22:49.356Z,102760.00
2019-03-22T03:25:19.146Z,102763.00
2019-03-22T03:27:48.725Z,102767.00
2019-03-22T03:30:22.632Z,102762.00
2019-03-22T03:32:52.075Z,102759.00
2019-03-22T03:35:21.474Z,102763.00
2019-03-22T03:37:50.875Z,102764.00
2019-03-22T03:40:20.520Z,102756.00
2019-03-22T03:42:50.254Z,102756.00
2019-03-22T03:45:38.474Z,102759.00
2019-03-22T03:48:11.368Z,102764.00
2019-03-22T03:50:40.908Z,102759.00
2019-03-22T03:53:10.381Z,102751.00
2019-03-22T03:55:39.911Z,102749.00
2019-03-22T03:58:09.334Z,102747.00
2019-03-22T04:00:38.858Z,102738.00
2019-03-22T04:03:08.388Z,102745.00
2019-03-22T04:05:37.961Z,102739.00
2019-03-22T04:08:07.447Z,102740.00
2019-03-22T04:10:36.900Z,102735.00
2019-03-22T04:13:06.423Z,102736.00
2019-03-22T04:15:36.036Z,102747.00
2019-03-22T04:18:05.765Z,102744.00
2019-03-22T04:20:35.240Z,102735.00
2019-03-22T04:23:04.714Z,102743.00
2019-03-22T04:25:34.200Z,102742.00
2019-03-22T04:28:03.724Z,102743.00
2019-03-22T04:30:33.192Z,102742.00
2019-03-22T04:33:06.244Z,102741.00
2019-03-22T04:35:33.862Z,102740.00
2019-03-22T04:38:03.320Z,102741.00
2019-03-22T04:40:32.851Z,102743.00
2019-03-22T04:43:02.446Z,102740.00
2019-03-22T04:45:33.687Z,102745.00
2019-03-22T04:48:28.180Z,102733.00
2019-03-22T04:51:00.594Z,102747.00
2019-03-22T04:53:34.715Z,102734.00
2019-03-22T04:56:08.617Z,102736.00
2019-03-22T04:58:42.630Z,102744.00
2019-03-22T05:01:14.718Z,102746.00
2019-03-22T05:03:45.610Z,102748.00
2019-03-22T05:06:17.849Z,102731.00
2019-03-22T05:08:49.858Z,102733.00
2019-03-22T05:11:21.626Z,102744.00
2019-03-22T05:13:55.768Z,102740.00
2019-03-22T05:16:25.630Z,102733.00
2019-03-22T05:18:57.200Z,102733.00
2019-03-22T05:21:28.713Z,102732.00
2019-03-22T05:24:02.775Z,102727.00
2019-03-22T05:26:36.946Z,102728.00
2019-03-22T05:29:09.044Z,102730.00
2019-03-22T05:32:02.947Z,102738.00
2019-03-22T05:34:32.445Z,102735.00
2019-03-22T05:37:01.948Z,102733.00
2019-03-22T05:39:31.400Z,102730.00
2019-03-22T05:42:00.888Z,102734.00
2019-03-22T05:44:30.353Z,102727.00
2019-03-22T05:46:59.904Z,102734.00
2019-03-22T05:49:29.419Z,102732.00
2019-03-22T05:51:58.918Z,102734.00
2019-03-22T05:54:28.353Z,102735.00
2019-03-22T05:56:57.941Z,102736.00
2019-03-22T05:59:27.405Z,102746.00
2019-03-22T06:01:56.986Z,102741.00
2019-03-22T06:04:26.546Z,102740.00
2019-03-22T06:06:55.968Z,102748.00
2019-03-22T06:09:25.418Z,102744.00
2019-03-22T06:11:54.941Z,102755.00
2019-03-22T06:14:24.354Z,102757.00
2019-03-22T06:16:53.787Z,102763.00
2019-03-22T06:19:23.315Z,102770.00
2019-03-22T06:21:52.793Z,102772.00
2019-03-22T06:24:22.500Z,102772.00
2019-03-22T06:26:52.104Z,102765.00
2019-03-22T06:29:21.716Z,102763.00
2019-03-22T06:31:51.192Z,102763.00
2019-03-22T06:34:20.642Z,102766.00
2019-03-22T06:36:50.137Z,102756.00
2019-03-22T06:39:19.600Z,102771.00
2019-03-22T06:41:49.034Z,102764.00
2019-03-22T06:44:18.527Z,102771.00
2019-03-22T06:46:48.005Z,102765.00
2019-03-22T06:49:17.459Z,102758.00
2019-03-22T06:51:47.001Z,102758.00
2019-03-22T06:54:16.478Z,102761.00
2019-03-22T06:56:45.960Z,102764.00
2019-03-22T06:59:15.445Z,102770.00
2019-03-22T07:01:44.904Z,102766.00
2019-03-22T07:04:14.449Z,102761.00
2019-03-22T07:06:43.927Z,102769.00
2019-03-22T07:09:13.457Z,102770.00
2019-03-22T07:11:42.995Z,102769.00
2019-03-22T07:14:12.307Z,102767.00
2019-03-22T07:16:41.870Z,102782.00
2019-03-22T07:19:11.386Z,102780.00
2019-03-22T07:21:41.005Z,102778.00
2019-03-22T07:24:10.510Z,102780.00
2019-03-22T07:26:40.020Z,102779.00
2019-03-22T07:29:09.503Z,102784.00
2019-03-22T07:31:38.957Z,102779.00
2019-03-22T07:34:08.532Z,102781.00
2019-03-22T07:36:38.028Z,102788.00
2019-03-22T07:39:09.531Z,102782.00
2019-03-22T07:41:39.006Z,102778.00
2019-03-22T07:44:08.523Z,102779.00
2019-03-22T07:46:38.050Z,102764.00
2019-03-22T07:49:07.512Z,102768.00
2019-03-22T07:51:36.967Z,102775.00
2019-03-22T07:54:06.588Z,102772.00
2019-03-22T07:56:36.063Z,102777.00
2019-03-22T07:59:05.613Z,102768.00
2019-03-22T08:01:35.107Z,102778.00
2019-03-22T08:04:04.760Z,102777.00
2019-03-22T08:06:34.222Z,102775.00
2019-03-22T08:09:06.906Z,102763.00
2019-03-22T08:11:36.698Z,102770.00
2019-03-22T08:14:06.261Z,102760.00
2019-03-22T08:16:35.795Z,102757.00
2019-03-22T08:19:05.190Z,102750.00
2019-03-22T08:21:34.674Z,102763.00
2019-03-22T08:24:04.288Z,102751.00
2019-03-22T08:26:33.901Z,102754.00
2019-03-22T08:29:03.382Z,102743.00
2019-03-22T08:31:32.872Z,102751.00
2019-03-22T08:34:02.489Z,102746.00
2019-03-22T08:36:32.000Z,102749.00
2019-03-22T08:39:01.558Z,102749.00
2019-03-22T08:41:31.085Z,102752.00
2019-03-22T08:44:02.809Z,102738.00
2019-03-22T08:46:31.959Z,102740.00
2019-03-22T08:49:01.500Z,102741.00
2019-03-22T08:51:31.146Z,102736.00
2019-03-22T08:54:00.675Z,102743.00
2019-03-22T08:56:30.244Z,102737.00
2019-03-22T08:58:59.744Z,102733.00
2019-03-22T09:01:29.501Z,102732.00
2019-03-22T09:03:59.021Z,102737.00
2019-03-22T09:06:31.477Z,102730.00
2019-03-22T09:09:01.060Z,102729.00
2019-03-22T09:11:30.632Z,102724.00
2019-03-22T09:14:00.089Z,102719.00
2019-03-22T09:16:30.803Z,102717.00
2019-03-22T09:19:00.419Z,102717.00
2019-03-22T09:21:29.904Z,102719.00
2019-03-22T09:23:59.396Z,102705.00
2019-03-22T09:26:28.944Z,102706.00
2019-03-22T09:28:58.381Z,102712.00
2019-03-22T09:31:27.890Z,102702.00
2019-03-22T09:33:57.406Z,102698.00
2019-03-22T09:36:26.989Z,102691.00
2019-03-22T09:38:56.461Z,102691.00
2019-03-22T09:41:25.945Z,102692.00
2019-03-22T09:43:55.412Z,102692.00
2019-03-22T09:46:24.886Z,102685.00
2019-03-22T09:48:54.353Z,102679.00
2019-03-22T09:51:23.794Z,102680.00
2019-03-22T09:53:53.278Z,102675.00
2019-03-22T09:56:22.738Z,102664.00
2019-03-22T09:58:52.214Z,102661.00
2019-03-22T10:01:23.888Z,102657.00
2019-03-22T10:03:52.881Z,102663.00
2019-03-22T10:06:22.443Z,102662.00
2019-03-22T10:08:51.958Z,102663.00
2019-03-22T10:11:21.414Z,102652.00
2019-03-22T10:13:51.021Z,102654.00
2019-03-22T10:16:20.481Z,102641.00
2019-03-22T10:18:49.969Z,102640.00
2019-03-22T10:21:22.603Z,102638.00
2019-03-22T10:23:50.664Z,102640.00
2019-03-22T10:26:20.217Z,102644.00
2019-03-22T10:28:49.831Z,102638.00
2019-03-22T10:31:19.304Z,102644.00
2019-03-22T10:33:48.798Z,102632.00
2019-03-22T10:36:19.825Z,102622.00
2019-03-22T10:38:50.533Z,102620.00
2019-03-22T10:41:20.180Z,102615.00
2019-03-22T10:43:49.658Z,102613.00
2019-03-22T10:46:19.232Z,102604.00
2019-03-22T10:48:48.723Z,102603.00
2019-03-22T10:51:21.344Z,102597.00
2019-03-22T10:53:49.350Z,102596.00
2019-03-22T10:56:18.802Z,102591.00
2019-03-22T10:58:48.236Z,102586.00
2019-03-22T11:01:17.711Z,102581.00
2019-03-22T11:03:47.249Z,102575.00
2019-03-22T11:06:25.738Z,102577.00
2019-03-22T11:08:48.077Z,102567.00
2019-03-22T11:11:17.562Z,102573.00
2019-03-22T11:13:47.025Z,102565.00
2019-03-22T11:16:16.568Z,102566.00
2019-03-22T11:18:46.109Z,102554.00
2019-03-22T11:21:15.538Z,102556.00
2019-03-22T11:23:45.107Z,102554.00
2019-03-22T11:26:14.871Z,102551.00
2019-03-22T11:28:44.316Z,102545.00
2019-03-22T11:31:13.842Z,102548.00
2019-03-22T11:33:43.342Z,102544.00
2019-03-22T11:36:12.942Z,102541.00
2019-03-22T11:38:42.408Z,102536.00
2019-03-22T11:41:11.943Z,102540.00
2019-03-22T11:43:41.449Z,102536.00
2019-03-22T11:46:10.997Z,102528.00
2019-03-22T11:48:40.608Z,102536.00
2019-03-22T11:51:10.153Z,102517.00
2019-03-22T11:53:39.707Z,102520.00
2019-03-22T11:56:09.535Z,102515.00
2019-03-22T11:58:40.183Z,102510.00
2019-03-22T12:01:19.109Z,102506.00
2019-03-22T12:03:41.447Z,102512.00
2019-03-22T12:06:11.148Z,102504.00
2019-03-22T12:08:40.654Z,102503.00
2019-03-22T12:11:10.217Z,102493.00
2019-03-22T12:13:39.722Z,102506.00
2019-03-22T12:16:09.185Z,102491.00
2019-03-22T12:18:41.811Z,102485.00
2019-03-22T12:21:11.456Z,102484.00
2019-03-22T12:23:40.906Z,102479.00
2019-03-22T12:26:10.346Z,102475.00
2019-03-22T12:28:39.811Z,102483.00
2019-03-22T12:31:09.311Z,102478.00
2019-03-22T12:33:38.757Z,102475.00
2019-03-22T12:36:08.325Z,102472.00
2019-03-22T12:38:37.794Z,102464.00
2019-03-22T12:41:07.250Z,102466.00
2019-03-22T12:43:36.737Z,102471.00
2019-03-22T12:46:06.324Z,102465.00
2019-03-22T12:48:35.766Z,102460.00
2019-03-22T12:51:08.324Z,102470.00
2019-03-22T12:53:37.861Z,102455.00
2019-03-22T12:56:07.437Z,102451.00
2019-03-22T12:58:37.099Z,102441.00
2019-03-22T13:01:06.689Z,102445.00
2019-03-22T13:03:36.197Z,102437.00
2019-03-22T13:06:06.034Z,102441.00
2019-03-22T13:08:38.523Z,102433.00
2019-03-22T13:11:08.066Z,102425.00
2019-03-22T13:13:37.522Z,102420.00
2019-03-22T13:16:06.953Z,102414.00
2019-03-22T13:18:36.446Z,102410.00
2019-03-22T13:21:05.955Z,102408.00
2019-03-22T13:23:35.411Z,102408.00
2019-03-22T13:26:05.031Z,102397.00
2019-03-22T13:28:34.521Z,102396.00
2019-03-22T13:31:03.941Z,102393.00
2019-03-22T13:33:33.373Z,102386.00
2019-03-22T13:36:02.922Z,102388.00
2019-03-22T13:38:32.335Z,102381.00
2019-03-22T13:41:01.949Z,102386.00
2019-03-22T13:43:31.386Z,102381.00
2019-03-22T13:46:00.940Z,102373.00
2019-03-22T13:48:30.395Z,102372.00
2019-03-22T13:50:59.852Z,102360.00
2019-03-22T13:53:29.328Z,102358.00
2019-03-22T13:55:58.816Z,102354.00
2019-03-22T13:58:28.321Z,102361.00
2019-03-22T14:00:57.805Z,102358.00
2019-03-22T14:03:27.272Z,102355.00
2019-03-22T14:05:56.811Z,102344.00
2019-03-22T14:08:27.082Z,102341.00
2019-03-22T14:10:56.675Z,102346.00
2019-03-22T14:13:26.124Z,102338.00
2019-03-22T14:15:55.600Z,102338.00
2019-03-22T14:18:25.065Z,102332.00
2019-03-22T14:20:54.675Z,102335.00
2019-03-22T14:23:24.108Z,102328.00
2019-03-22T14:25:53.604Z,102326.00
2019-03-22T14:28:23.090Z,102328.00
2019-03-22T14:30:52.520Z,102325.00
2019-03-22T14:33:22.009Z,102325.00
2019-03-22T14:35:51.625Z,102313.00
2019-03-22T14:38:21.119Z,102313.00
2019-03-22T14:40:50.556Z,102307.00
2019-03-22T14:43:20.040Z,102306.00
2019-03-22T14:45:49.512Z,102296.00
2019-03-22T14:48:18.966Z,102299.00
2019-03-22T14:50:48.448Z,102291.00
2019-03-22T14:53:21.047Z,102293.00
2019-03-22T14:55:50.503Z,102291.00
2019-03-22T14:58:19.781Z,102290.00
2019-03-22T15:00:49.225Z,102282.00
2019-03-22T15:03:25.332Z,102283.00
2019-03-22T15:05:56.292Z,102274.00
2019-03-22T15:08:25.931Z,102273.00
2019-03-22T15:10:55.986Z,102266.00
2019-03-22T15:13:29.853Z,102267.00
2019-03-22T15:16:01.066Z,102267.00
2019-03-22T15:18:32.176Z,102265.00
2019-03-22T15:21:06.193Z,102265.00
2019-03-22T15:23:52.228Z,102258.00
2019-03-22T15:26:23.436Z,102262.00
2019-03-22T15:29:12.643Z,102263.00
2019-03-22T15:31:43.787Z,102270.00
2019-03-22T15:34:23.576Z,102261.00
2019-03-22T15:37:00.385Z,102264.00
2019-03-22T15:39:47.554Z,102268.00
2019-03-22T15:42:17.077Z,102263.00
2019-03-22T15:44:46.509Z,102255.00
2019-03-22T15:47:16.039Z,102262.00
2019-03-22T15:49:45.547Z,102262.00
2019-03-22T15:52:15.090Z,102262.00
2019-03-22T15:54:44.602Z,102262.00
2019-03-22T15:57:14.202Z,102266.00
2019-03-22T15:59:43.703Z,102263.00
2019-03-22T16:02:13.358Z,102260.00
2019-03-22T16:04:42.928Z,102262.00
2019-03-22T16:07:12.614Z,102265.00
2019-03-22T16:09:42.134Z,102264.00
2019-03-22T16:12:11.843Z,102256.00
2019-03-22T16:14:41.303Z,102249.00
2019-03-22T16:17:10.801Z,102251.00
2019-03-22T16:19:40.279Z,102252.00
2019-03-22T16:22:09.871Z,102249.00
2019-03-22T16:24:39.411Z,102245.00
2019-03-22T16:27:08.904Z,102250.00
2019-03-22T16:29:38.568Z,102246.00
2019-03-22T16:32:08.313Z,102247.00
2019-03-22T16:34:37.802Z,102236.00
2019-03-22T16:37:07.618Z,102242.00
2019-03-22T16:39:37.183Z,102244.00
2019-03-22T16:42:06.727Z,102244.00
2019-03-22T16:44:36.191Z,102231.00
2019-03-22T16:47:05.942Z,102237.00
2019-03-22T16:49:35.402Z,102236.00
2019-03-22T16:52:05.012Z,102237.00
2019-03-22T16:54:34.510Z,102233.00
2019-03-22T16:57:04.068Z,102233.00
2019-03-22T16:59:33.647Z,102228.00
2019-03-22T17:02:03.283Z,102229.00
2019-03-22T17:04:32.922Z,102228.00
2019-03-22T17:07:02.490Z,102238.00
2019-03-22T17:09:32.047Z,102240.00
2019-03-22T17:12:01.602Z,102241.00
2019-03-22T17:14:34.045Z,102229.00
2019-03-22T17:17:03.559Z,102237.00
2019-03-22T17:19:33.134Z,102238.00
2019-03-22T17:22:02.589Z,102241.00
2019-03-22T17:24:32.148Z,102244.00
2019-03-22T17:27:01.685Z,102241.00
2019-03-22T17:29:31.326Z,102236.00
2019-03-22T17:32:00.774Z,102242.00
2019-03-22T17:34:30.250Z,102242.00
2019-03-22T17:36:59.726Z,102238.00
2019-03-22T17:39:29.221Z,102241.00
2019-03-22T17:41:58.726Z,102249.00
2019-03-22T17:44:28.315Z,102247.00
2019-03-22T17:46:57.779Z,102255.00
2019-03-22T17:49:27.267Z,102258.00
2019-03-22T17:51:56.726Z,102253.00
2019-03-22T17:54:26.188Z,102259.00
2019-03-22T17:56:55.746Z,102257.00
2019-03-22T17:59:25.345Z,102267.00
2019-03-22T18:01:55.164Z,102259.00
2019-03-22T18:04:24.659Z,102262.00
2019-03-22T18:06:54.279Z,102271.00
2019-03-22T18:09:23.878Z,102265.00
2019-03-22T18:11:53.312Z,102269.00
2019-03-22T18:14:22.833Z,102269.00
2019-03-22T18:16:52.352Z,102269.00
2019-03-22T18:19:21.836Z,102275.00
2019-03-22T18:21:51.304Z,102273.00
2019-03-22T18:24:20.854Z,102286.00
2019-03-22T18:26:50.475Z,102283.00
2019-03-22T18:29:19.968Z,102295.00
2019-03-22T18:31:49.590Z,102296.00
2019-03-22T18:34:19.216Z,102298.00
2019-03-22T18:36:48.723Z,102303.00
2019-03-22T18:39:19.814Z,102305.00
2019-03-22T18:41:49.297Z,102302.00
2019-03-22T18:44:18.816Z,102307.00
2019-03-22T18:46:48.261Z,102310.00
2019-03-22T18:49:17.987Z,102308.00
2019-03-22T18:51:49.051Z,102305.00
2019-03-22T18:54:18.592Z,102312.00
2019-03-22T18:56:48.187Z,102321.00
2019-03-22T18:59:17.795Z,102308.00
2019-03-22T19:01:47.324Z,102319.00
2019-03-22T19:04:16.914Z,102321.00
2019-03-22T19:06:46.475Z,102326.00
2019-03-22T19:09:16.004Z,102322.00
2019-03-22T19:11:45.559Z,102319.00
2019-03-22T19:14:15.071Z,102316.00
2019-03-22T19:16:44.776Z,102326.00
2019-03-22T19:19:14.344Z,102322.00
2019-03-22T19:21:43.813Z,102319.00
2019-03-22T19:24:13.390Z,102324.00
2019-03-22T19:26:42.972Z,102317.00
2019-03-22T19:29:12.682Z,102320.00
2019-03-22T19:31:42.216Z,102316.00
2019-03-22T19:34:11.723Z,102314.00
2019-03-22T19:36:41.239Z,102309.00
2019-03-22T19:39:10.777Z,102308.00
2019-03-22T19:41:40.255Z,102315.00
2019-03-22T19:44:09.541Z,102318.00
2019-03-22T19:46:39.135Z,102318.00
2019-03-22T19:49:08.621Z,102318.00
2019-03-22T19:51:38.245Z,102320.00
2019-03-22T19:54:07.711Z,102325.00
2019-03-22T19:56:37.240Z,102324.00
2019-03-22T19:59:06.688Z,102325.00
2019-03-22T20:01:36.165Z,102320.00
2019-03-22T20:04:05.956Z,102319.00
2019-03-22T20:06:35.404Z,102324.00
2019-03-22T20:09:07.842Z,102320.00
2019-03-22T20:11:37.516Z,102320.00
2019-03-22T20:14:07.155Z,102323.00
2019-03-22T20:16:36.618Z,102324.00
2019-03-22T20:19:06.241Z,102327.00
2019-03-22T20:21:35.714Z,102326.00
2019-03-22T20:24:05.408Z,102326.00
2019-03-22T20:26:34.887Z,102318.00
2019-03-22T20:29:04.507Z,102320.00
2019-03-22T20:31:34.063Z,102323.00
2019-03-22T20:34:03.669Z,102318.00
2019-03-22T20:36:33.308Z,102319.00
2019-03-22T20:39:03.676Z,102312.00
2019-03-22T20:41:33.167Z,102318.00
2019-03-22T20:44:02.733Z,102324.00
2019-03-22T20:46:32.235Z,102328.00
2019-03-22T20:49:01.700Z,102326.00
2019-03-22T20:51:31.240Z,102327.00
2019-03-22T20:54:00.820Z,102318.00
2019-03-22T20:56:30.379Z,102323.00
2019-03-22T20:58:59.863Z,102322.00
2019-03-22T21:01:29.484Z,102331.00
2019-03-22T21:03:59.003Z,102339.00
2019-03-22T21:06:28.493Z,102339.00
2019-03-22T21:08:57.963Z,102326.00
2019-03-22T21:11:27.495Z,102337.00
2019-03-22T21:13:56.973Z,102333.00
2019-03-22T21:16:26.469Z,102340.00
2019-03-22T21:18:56.077Z,102334.00
2019-03-22T21:21:35.930Z,102344.00
2019-03-22T21:23:56.853Z,102346.00
2019-03-22T21:26:26.357Z,102352.00
2019-03-22T21:28:55.851Z,102351.00
2019-03-22T21:31:25.322Z,102352.00
2019-03-22T21:33:54.907Z,102355.00
2019-03-22T21:36:24.430Z,102357.00
2019-03-22T21:38:53.919Z,102361.00
2019-03-22T21:41:23.425Z,102366.00
2019-03-22T21:43:52.916Z,102363.00
2019-03-22T21:46:22.415Z,102361.00
2019-03-22T21:48:51.910Z,102361.00
2019-03-22T21:51:21.484Z,102361.00
2019-03-22T21:53:51.030Z,102353.00
2019-03-22T21:56:20.534Z,102362.00
2019-03-22T21:58:50.040Z,102355.00
2019-03-22T22:01:19.584Z,102356.00
2019-03-22T22:03:49.078Z,102355.00
2019-03-22T22:06:18.561Z,102360.00
2019-03-22T22:08:48.044Z,102361.00
2019-03-22T22:11:17.551Z,102359.00
2019-03-22T22:13:47.039Z,102362.00
2019-03-22T22:16:16.884Z,102366.00
2019-03-22T22:18:46.356Z,102369.00
2019-03-22T22:21:15.956Z,102369.00
2019-03-22T22:23:45.484Z,102371.00
2019-03-22T22:26:15.000Z,102365.00
2019-03-22T22:28:44.302Z,102369.00
2019-03-22T22:31:13.748Z,102372.00
2019-03-22T22:33:43.262Z,102374.00
2019-03-22T22:36:12.814Z,102370.00
2019-03-22T22:38:42.298Z,102384.00
2019-03-22T22:41:11.772Z,102383.00
2019-03-22T22:43:41.225Z,102381.00
2019-03-22T22:46:10.686Z,102381.00
2019-03-22T22:48:40.183Z,102381.00
2019-03-22T22:51:09.707Z,102381.00
2019-03-22T22:53:39.202Z,102382.00
2019-03-22T22:56:08.681Z,102374.00
2019-03-22T22:58:38.152Z,102382.00
2019-03-22T23:01:07.801Z,102384.00
2019-03-22T23:03:37.285Z,102383.00
2019-03-22T23:06:09.679Z,102381.00
2019-03-22T23:08:38.063Z,102377.00
2019-03-22T23:11:07.578Z,102381.00
2019-03-22T23:13:37.035Z,102382.00
2019-03-22T23:16:06.655Z,102385.00
2019-03-22T23:18:36.118Z,102400.00
2019-03-22T23:21:05.658Z,102395.00
2019-03-22T23:23:35.179Z,102398.00
2019-03-22T23:26:04.770Z,102389.00
2019-03-22T23:28:34.311Z,102393.00
2019-03-22T23:31:06.330Z,102390.00
2019-03-22T23:33:35.851Z,102400.00
2019-03-22T23:36:05.384Z,102404.00
2019-03-22T23:38:34.907Z,102404.00
2019-03-22T23:41:04.414Z,102402.00
2019-03-22T23:43:33.870Z,102401.00
2019-03-22T23:46:03.434Z,102406.00
2019-03-22T23:48:32.902Z,102412.00
2019-03-22T23:51:02.239Z,102413.00
2019-03-22T23:53:31.800Z,102414.00
2019-03-22T23:56:01.289Z,102416.00
2019-03-22T23:58:30.749Z,102426.00
